Linden, MI (48451)

4:44 PM EDT on August 27, 2015 (GMT -0400)
Chestnut Grove | | Change Station
CLOSE
Current Station
Personal Weather Station
Location: Linden, MI
Elevation: 872 ft
Nearby Weather Stations

Elev 872 ft 42.81 °N, 83.80 °W | Updated 54 seconds ago

Overcast
Overcast
63.9 °F
Feels Like 63.9 °F
N
0.0
Wind Variable Wind from NNW
Gusts 0.0 mph

Today
High -- | Low -- °F
--% Chance of Precip.
Yesterday
High -- | Low -- °F
Precip. -- in
6:54 AM 8:18 PM
Waxing Gibbous, 95% visible
Pressure 30.19 in
Visibility 10.0 miles
Clouds Mostly Cloudy 2800 ft
Overcast 3500 ft
Dew Point 56 °F
Humidity 77%
Rainfall 0.00 in
Snow Depth Not available.
UV 2 out of 12
Pollen 9.50 out of 12
Air Quality Not available.
Flu Activity Not available.
METAR KFNT 271953Z 23004KT 10SM BKN028 OVC035 19/12 A3019 RMK AO2 SLP221 T01890117
Pressure 30.19 in
Visibility 10.0 miles
Clouds Mostly Cloudy 2800 ft
Overcast 3500 ft
Dew Point 56 °F
Humidity 77%
Rainfall 0.00 in
Snow Depth Not available.
UV 2 out of 12
Pollen 9.50 out of 12
Air Quality Not available.
Flu Activity Not available.
METAR KFNT 271953Z 23004KT 10SM BKN028 OVC035 19/12 A3019 RMK AO2 SLP221 T01890117

10-Day Weather Forecast

×

Almanac

Astronomy

Aug. 27, 2015 Rise Set
Actual Time
Civil Twilight
Nautical Twilight
Astronomical Twilight
Moon
Length of Visible Light
Length of Day
Tomorrow will be .
, % of the Moon is Illuminated

Today's Extremes

State Highs State Lows

Community

WunderPhotos

Upload Photos

1,850,212 photos uploaded!

WunderBlogs® & News

Nearby

Air Quality

  Air Quality AQ Index Pollutant
Not available.

Snow Depth

Station Depth Elevation

Earthquake Activity

City Distance Mag. Time & Date
Minimum magnitude displayed is 2.5.

Coastal Water Temperatures

Place Temperature

Stations

Nearby Weather Stations

Station Location Temp. Windchill Dew Point Humidity Wind Precip. Elev Updated Type